Terminal Aerodrome Forecast
Issued by NWS

Home | Current Version | Previous Version | Graphics & Text | Print | Product List | Glossary On
Versions: 1 2 3 4 5 6 7 8 9 10 11 12 13 14 15 16 17 18 19 20 21 22 23 24 25
000
FTUS43 KABR 252300 AAA
TAFATY
TAF AMD
KATY 252323Z 2523/2618 34008KT P6SM SCT030
     FM260200 VRB04KT P6SM SKC
     FM261400 24010KT P6SM BKN250=

USA.gov is the U.S. government's official web portal to all federal, state and local government web resources and services.